Terminal Aerodrome Forecast
Issued by NWS

Home | Current Version | Previous Version | Text Only | Print | Product List | Glossary Off
Versions: 1 2 3 4 5 6 7 8 9 10 11 12 13 14 15 16 17 18 19 20 21

204
FTUS43 KUNR 240103 AAA
TAFGCC
TAF AMD
KGCC 240103Z 2401/2424 26018G28KT P6SM -SHRA OVC020
     FM240500 27015KT P6SM -RA OVC010
     FM241500 27018G28KT P6SM -SHRA OVC015=

USA.gov is the U.S. government's official web portal to all federal, state and local government web resources and services.